Time;durP1;ratioP1;P1;durP2;ratioP2;P2;SDS_P1;SDS_P2;PMS_P1;PMS_P2;Temp;Humidity;BMP_temperature;BMP_pressure;BME280_temperature;BME280_humidity;BME280_pressure;Samples;Min_cycle;Max_cycle;Signal;HPM_P1;HPM_P2
2023/05/22 00:00:53;;;;;;;32.83;23.92;;;17.90;99.90;;;;;;4840352;29;20069;-90
2023/05/22 00:03:19;;;;;;;31.50;22.75;;;18.40;99.90;;;;;;4840747;29;20054;-88
2023/05/22 00:05:47;;;;;;;34.00;23.30;;;17.90;99.90;;;;;;4841802;29;20057;-88
2023/05/22 00:08:12;;;;;;;32.42;23.60;;;17.90;99.90;;;;;;4843219;29;20405;-88
2023/05/22 00:10:38;;;;;;;33.22;23.00;;;17.90;99.90;;;;;;4858410;29;20140;-88
2023/05/22 00:13:09;;;;;;;33.38;24.00;;;17.90;99.90;;;;;;4855987;29;20115;-87
2023/05/22 00:15:41;;;;;;;30.55;22.52;;;17.90;99.90;;;;;;4842113;29;20501;-88
2023/05/22 00:18:07;;;;;;;29.95;22.73;;;17.90;99.90;;;;;;4842354;29;20042;-88
2023/05/22 00:20:37;;;;;;;35.30;23.60;;;17.90;99.90;;;;;;4841618;29;20126;-87
2023/05/22 00:23:11;;;;;;;34.85;23.95;;;17.90;99.90;;;;;;4841769;29;20053;-88
2023/05/22 00:25:37;;;;;;;32.35;23.52;;;17.90;99.90;;;;;;4840889;29;20058;-88
2023/05/22 00:28:03;;;;;;;32.83;23.33;;;18.00;99.90;;;;;;4841754;29;20054;-88
2023/05/22 00:30:29;;;;;;;33.50;23.85;;;17.90;99.90;;;;;;4841762;29;20077;-87
2023/05/22 00:32:55;;;;;;;31.80;23.20;;;18.60;99.90;;;;;;4840618;29;20086;-88
2023/05/22 00:35:21;;;;;;;31.58;23.55;;;18.70;99.90;;;;;;4839976;29;20054;-88
2023/05/22 00:37:47;;;;;;;33.83;24.33;;;18.00;99.90;;;;;;4846175;29;20050;-89
2023/05/22 00:40:16;;;;;;;33.25;22.90;;;17.90;99.90;;;;;;4874357;29;20508;-88
2023/05/22 00:42:43;;;;;;;31.95;23.55;;;18.80;99.90;;;;;;4858970;29;20414;-89
2023/05/22 00:45:10;;;;;;;30.90;22.85;;;18.00;99.90;;;;;;4862935;29;20549;-88
2023/05/22 00:47:36;;;;;;;32.78;23.40;;;17.80;99.90;;;;;;4866892;29;20061;-88
2023/05/22 00:50:03;;;;;;;34.42;23.88;;;17.90;99.90;;;;;;4858856;29;20405;-88
2023/05/22 00:52:45;;;;;;;34.40;23.40;;;17.80;99.90;;;;;;4862965;29;20049;-87
2023/05/22 00:55:13;;;;;;;31.92;23.13;;;17.90;99.90;;;;;;4861827;29;20054;-88
2023/05/22 01:01:43;;;;;;;32.22;23.55;;;17.80;99.90;;;;;;4863860;29;20097;-87
2023/05/22 01:04:23;;;;;;;31.58;23.17;;;17.70;99.90;;;;;;4862983;29;20066;-87
2023/05/22 01:06:55;;;;;;;33.55;24.02;;;17.40;99.90;;;;;;4864031;29;20041;-88
2023/05/22 01:09:20;;;;;;;31.48;23.38;;;18.00;99.90;;;;;;4862610;29;20141;-87
2023/05/22 01:12:23;;;;;;;32.88;24.00;;;17.70;99.90;;;;;;4864147;29;20081;-88
2023/05/22 01:14:54;;;;;;;32.58;23.65;;;17.70;99.90;;;;;;4863712;29;20060;-88
2023/05/22 01:17:40;;;;;;;32.92;24.20;;;17.70;99.90;;;;;;4861443;29;20132;-89
2023/05/22 01:20:26;;;;;;;33.25;24.27;;;17.70;99.90;;;;;;4861895;29;20089;-88
2023/05/22 01:23:15;;;;;;;30.15;22.75;;;17.60;99.90;;;;;;4863683;29;20046;-89
2023/05/22 01:26:19;;;;;;;30.13;22.20;;;17.60;99.90;;;;;;4849414;29;20102;-89
2023/05/22 01:29:03;;;;;;;;;;;17.70;99.90;;;;;;4845910;29;20070;-88
2023/05/22 01:31:31;;;;;;;33.08;22.80;;;17.60;99.90;;;;;;4842889;29;19954;-89
2023/05/22 01:34:00;;;;;;;35.08;24.55;;;17.60;99.90;;;;;;4848114;29;20558;-90
2023/05/22 01:36:30;;;;;;;31.75;23.63;;;17.60;99.90;;;;;;4845002;29;20050;-89
2023/05/22 01:38:57;;;;;;;31.60;23.38;;;17.60;99.90;;;;;;4845222;29;20050;-89
2023/05/22 01:41:23;;;;;;;31.88;23.15;;;18.20;99.90;;;;;;4844702;29;20053;-89
2023/05/22 01:43:49;;;;;;;36.17;24.75;;;17.60;99.90;;;;;;4858792;29;20058;-89
2023/05/22 01:46:15;;;;;;;31.85;23.20;;;17.70;99.90;;;;;;4844198;29;20042;-89
2023/05/22 01:48:40;;;;;;;30.65;23.15;;;17.50;99.90;;;;;;4844921;29;20061;-89
2023/05/22 01:51:37;;;;;;;32.97;24.40;;;18.10;99.90;;;;;;4844645;29;20046;-89
2023/05/22 01:54:10;;;;;;;33.22;24.42;;;17.50;99.90;;;;;;4844914;29;20053;-89
2023/05/22 01:56:51;;;;;;;35.55;25.60;;;17.40;99.90;;;;;;4843024;29;20115;-89
2023/05/22 01:59:30;;;;;;;32.60;24.13;;;17.50;99.90;;;;;;4843447;29;20494;-89
2023/05/22 02:02:13;;;;;;;33.92;24.08;;;17.40;99.90;;;;;;4842397;29;20057;-89
2023/05/22 02:04:53;;;;;;;32.75;24.27;;;17.00;99.90;;;;;;4844128;29;20194;-89
2023/05/22 02:11:01;;;;;;;32.70;24.58;;;17.10;99.90;;;;;;4859154;29;20044;-89
2023/05/22 02:13:27;;;;;;;34.85;24.88;;;17.40;99.90;;;;;;4866247;29;20069;-89
2023/05/22 02:15:54;;;;;;;36.63;25.63;;;17.40;99.90;;;;;;4873914;29;20087;-89
2023/05/22 02:18:28;;;;;;;34.78;24.27;;;17.50;99.90;;;;;;4861741;29;20562;-89
2023/05/22 02:20:55;;;;;;;32.85;25.25;;;17.30;99.90;;;;;;4860684;29;20049;-88
2023/05/22 02:23:31;;;;;;;33.65;24.05;;;17.30;99.90;;;;;;4862060;29;20410;-88
2023/05/22 02:25:56;;;;;;;34.60;24.45;;;17.30;99.90;;;;;;4862595;29;20045;-88
2023/05/22 02:28:22;;;;;;;33.25;25.13;;;17.40;99.90;;;;;;4860588;29;20041;-88
2023/05/22 02:30:48;;;;;;;34.28;24.90;;;17.30;99.90;;;;;;4845937;29;20111;-88
2023/05/22 02:33:16;;;;;;;33.42;24.40;;;17.30;99.90;;;;;;4843882;29;20057;-89
2023/05/22 02:35:43;;;;;;;34.53;24.52;;;17.30;99.90;;;;;;4842255;29;20058;-89
2023/05/22 02:38:24;;;;;;;36.40;25.27;;;17.30;99.90;;;;;;4842504;29;20042;-88
2023/05/22 02:40:50;;;;;;;34.95;24.15;;;17.20;99.90;;;;;;4842090;29;20072;-88
2023/05/22 02:43:15;;;;;;;33.08;24.08;;;17.70;99.90;;;;;;4842668;29;20478;-89
2023/05/22 02:45:41;;;;;;;35.70;26.05;;;17.50;99.90;;;;;;4842730;29;20495;-88
2023/05/22 02:48:07;;;;;;;31.67;24.48;;;17.70;99.90;;;;;;4843040;29;20116;-88
2023/05/22 02:50:33;;;;;;;35.05;26.45;;;17.20;99.90;;;;;;4842424;29;20061;-89
2023/05/22 02:53:08;;;;;;;34.15;25.33;;;17.20;99.90;;;;;;4842212;29;20053;-89
2023/05/22 02:55:34;;;;;;;32.75;24.05;;;17.20;99.90;;;;;;4841503;29;20142;-88
2023/05/22 02:58:00;;;;;;;34.55;24.80;;;17.20;99.90;;;;;;4843191;29;20090;-89
2023/05/22 03:00:25;;;;;;;35.40;25.40;;;17.20;99.90;;;;;;4842906;29;20061;-88
2023/05/22 03:02:53;;;;;;;36.03;25.60;;;17.20;99.90;;;;;;4841348;29;20046;-89
2023/05/22 03:05:19;;;;;;;32.13;24.67;;;17.70;99.90;;;;;;4841617;29;20042;-89
2023/05/22 03:07:48;;;;;;;35.70;26.13;;;17.10;99.90;;;;;;4843261;29;20050;-89
2023/05/22 03:10:20;;;;;;;36.08;25.35;;;17.50;99.90;;;;;;4843332;29;20507;-89
2023/05/22 03:12:45;;;;;;;33.58;25.23;;;17.10;99.90;;;;;;4845171;29;20046;-89
2023/05/22 03:15:11;;;;;;;32.58;25.30;;;17.10;99.90;;;;;;4842877;29;20508;-89
2023/05/22 03:17:36;;;;;;;34.42;25.55;;;17.00;99.90;;;;;;4842417;29;20046;-88
2023/05/22 03:20:04;;;;;;;33.22;25.05;;;17.30;99.90;;;;;;4843515;29;20481;-89
2023/05/22 03:22:29;;;;;;;36.45;26.38;;;17.10;99.90;;;;;;4844645;29;20058;-89
2023/05/22 03:24:58;;;;;;;34.15;24.70;;;17.20;99.90;;;;;;4841193;29;20049;-89
2023/05/22 03:27:26;;;;;;;32.85;25.38;;;17.20;99.90;;;;;;4842834;29;20072;-90
2023/05/22 03:29:52;;;;;;;33.88;24.73;;;17.10;99.90;;;;;;4842506;29;20053;-89
2023/05/22 03:32:26;;;;;;;32.72;24.58;;;17.10;99.90;;;;;;4841710;29;20062;-89
2023/05/22 03:34:51;;;;;;;34.15;24.98;;;17.10;99.90;;;;;;4848448;29;20049;-87
2023/05/22 03:37:17;;;;;;;34.28;25.20;;;17.80;99.90;;;;;;4847879;29;20044;-88
2023/05/22 03:39:42;;;;;;;35.60;25.38;;;17.80;99.90;;;;;;4843324;29;20417;-88
2023/05/22 03:42:15;;;;;;;34.72;25.67;;;17.80;99.90;;;;;;4846120;29;20487;-89
2023/05/22 03:44:43;;;;;;;32.75;25.05;;;17.10;99.90;;;;;;4846206;29;20133;-88
2023/05/22 03:47:12;;;;;;;36.00;26.38;;;17.10;99.90;;;;;;4843062;29;20198;-89
2023/05/22 03:49:44;;;;;;;32.15;24.27;;;18.00;99.90;;;;;;4841832;29;20057;-89
2023/05/22 03:52:10;;;;;;;34.22;24.00;;;17.10;99.90;;;;;;4870627;29;20064;-89
2023/05/22 03:54:35;;;;;;;33.63;25.45;;;17.30;99.90;;;;;;4884484;29;20084;-89
2023/05/22 03:57:15;;;;;;;33.03;24.83;;;17.50;99.90;;;;;;4864263;29;20046;-88
2023/05/22 03:59:44;;;;;;;33.92;25.50;;;17.10;99.90;;;;;;4836067;29;20054;-88
2023/05/22 04:02:11;;;;;;;33.08;23.67;;;17.20;99.90;;;;;;4841695;29;20050;-88
2023/05/22 04:04:37;;;;;;;34.40;24.92;;;17.40;99.90;;;;;;4826304;29;20097;-90
2023/05/22 04:07:07;;;;;;;32.10;25.08;;;17.10;99.90;;;;;;4838929;29;20077;-89
2023/05/22 04:09:43;;;;;;;32.88;25.30;;;17.10;99.90;;;;;;4841136;29;20053;-89
2023/05/22 04:12:09;;;;;;;32.83;24.75;;;16.90;99.90;;;;;;4840393;29;20050;-89
2023/05/22 04:14:41;;;;;;;33.33;24.30;;;17.20;99.90;;;;;;4841667;29;20054;-89
2023/05/22 04:17:10;;;;;;;32.15;25.05;;;17.10;99.90;;;;;;4842325;29;20049;-89
2023/05/22 04:19:36;;;;;;;32.70;24.00;;;17.60;99.90;;;;;;4858209;29;20489;-89
2023/05/22 04:22:47;;;;;;;32.25;24.90;;;17.00;99.90;;;;;;4842954;29;20070;-88
2023/05/22 04:25:13;;;;;;;29.70;23.65;;;17.20;99.90;;;;;;4840940;29;20057;-89
2023/05/22 04:27:39;;;;;;;34.78;24.20;;;17.20;99.90;;;;;;4841855;29;20046;-89
2023/05/22 04:30:07;;;;;;;32.47;24.15;;;17.60;99.90;;;;;;4842167;29;20050;-89
2023/05/22 04:32:35;;;;;;;30.25;22.77;;;17.20;99.90;;;;;;4841986;29;20488;-89
2023/05/22 04:35:19;;;;;;;32.25;23.27;;;17.20;99.90;;;;;;4841411;29;20409;-89
2023/05/22 04:37:44;;;;;;;38.33;24.55;;;18.10;99.90;;;;;;4845633;29;20042;-89
2023/05/22 04:40:13;;;;;;;34.90;23.48;;;17.30;99.90;;;;;;4846485;29;20470;-89
2023/05/22 04:42:41;;;;;;;29.75;22.60;;;17.30;99.90;;;;;;4841735;29;20049;-89
2023/05/22 04:45:18;;;;;;;33.05;23.20;;;17.30;99.90;;;;;;4840734;29;20085;-88
2023/05/22 04:47:43;;;;;;;32.80;23.77;;;17.30;99.90;;;;;;4821881;29;20058;-88
2023/05/22 04:50:09;;;;;;;33.45;23.63;;;17.30;99.90;;;;;;4822768;29;20120;-88
2023/05/22 04:52:36;;;;;;;30.75;24.35;;;17.30;99.90;;;;;;4842299;29;20375;-89
2023/05/22 04:55:01;;;;;;;29.67;23.15;;;17.20;99.90;;;;;;4843635;29;20442;-88
2023/05/22 04:57:28;;;;;;;34.42;23.48;;;17.30;99.90;;;;;;4840698;29;20050;-89
2023/05/22 05:00:21;;;;;;;33.58;24.25;;;17.60;99.90;;;;;;4842521;29;20121;-89
2023/05/22 05:02:59;;;;;;;32.08;23.77;;;17.20;99.90;;;;;;4843929;29;20060;-89
2023/05/22 05:05:25;;;;;;;31.58;23.60;;;17.20;99.90;;;;;;4854059;29;20046;-89
2023/05/22 05:07:53;;;;;;;31.95;23.15;;;17.40;99.90;;;;;;4861525;29;20155;-88
2023/05/22 05:10:19;;;;;;;30.60;22.80;;;18.20;99.90;;;;;;4861035;29;20077;-87
2023/05/22 05:12:45;;;;;;;27.83;22.27;;;17.20;99.90;;;;;;4872853;29;20074;-88
2023/05/22 05:15:11;;;;;;;29.75;22.80;;;17.20;99.90;;;;;;4859474;29;20144;-89
2023/05/22 05:17:39;;;;;;;29.95;23.10;;;17.80;99.90;;;;;;4860634;29;20052;-89
2023/05/22 05:20:13;;;;;;;30.30;22.38;;;17.60;99.90;;;;;;4860817;29;20447;-89
2023/05/22 05:22:53;;;;;;;29.60;21.77;;;17.20;99.90;;;;;;4859328;29;20053;-88
2023/05/22 05:25:19;;;;;;;30.15;21.52;;;17.90;99.90;;;;;;4858359;29;20600;-88
2023/05/22 05:28:00;;;;;;;29.90;22.10;;;18.20;99.90;;;;;;4841956;29;20042;-89
2023/05/22 05:30:28;;;;;;;29.92;21.35;;;17.20;99.90;;;;;;4841056;29;20178;-88
2023/05/22 05:32:54;;;;;;;33.67;23.02;;;17.90;99.90;;;;;;4841016;29;20046;-88
2023/05/22 05:35:20;;;;;;;30.63;22.85;;;18.00;99.90;;;;;;4855659;29;20048;-88
2023/05/22 05:37:58;;;;;;;29.98;21.08;;;18.20;99.90;;;;;;4857443;29;20053;-89
2023/05/22 05:40:26;;;;;;;30.95;21.98;;;17.20;99.90;;;;;;4859164;29;20077;-88
2023/05/22 05:42:52;;;;;;;28.90;22.52;;;17.50;99.90;;;;;;4843977;29;20050;-88
2023/05/22 05:45:18;;;;;;;29.95;22.30;;;17.50;99.90;;;;;;4843139;29;20106;-89
2023/05/22 05:47:44;;;;;;;30.17;22.40;;;17.20;99.90;;;;;;4844232;29;20049;-93
2023/05/22 05:50:09;;;;;;;29.67;22.40;;;17.90;99.90;;;;;;4845474;29;20046;-85
2023/05/22 05:52:44;;;;;;;29.42;22.63;;;17.20;99.90;;;;;;4842770;29;20085;-82
2023/05/22 05:55:10;;;;;;;28.88;22.15;;;17.60;99.90;;;;;;4842764;29;20141;-81
2023/05/22 05:57:35;;;;;;;28.92;21.92;;;17.20;99.90;;;;;;4841841;29;20136;-81
2023/05/22 06:00:01;;;;;;;27.65;21.92;;;17.90;99.90;;;;;;4843042;29;20136;-84
2023/05/22 06:02:27;;;;;;;29.92;21.33;;;17.40;99.90;;;;;;4842569;29;20079;-84
2023/05/22 06:05:04;;;;;;;28.35;21.83;;;17.40;99.90;;;;;;4843553;29;20057;-85
2023/05/22 06:07:33;;;;;;;27.95;20.90;;;18.20;99.90;;;;;;4843835;29;20095;-83
2023/05/22 06:09:59;;;;;;;27.92;21.13;;;17.40;99.90;;;;;;4842692;29;20137;-82
2023/05/22 06:12:29;;;;;;;27.88;21.85;;;17.50;99.90;;;;;;4843052;29;20652;-82
2023/05/22 06:14:58;;;;;;;27.45;21.35;;;17.60;99.90;;;;;;4844094;29;20046;-82
2023/05/22 06:17:23;;;;;;;27.23;20.55;;;18.40;99.90;;;;;;4843778;29;20050;-82
2023/05/22 06:19:52;;;;;;;28.55;20.65;;;17.70;99.90;;;;;;4843116;29;20106;-83
2023/05/22 06:22:18;;;;;;;27.23;20.27;;;18.20;99.90;;;;;;4842203;29;20042;-83
2023/05/22 06:24:44;;;;;;;26.23;20.88;;;17.90;99.90;;;;;;4843456;29;20053;-83
2023/05/22 06:27:09;;;;;;;27.00;19.95;;;18.00;99.90;;;;;;4841411;29;20054;-81
2023/05/22 06:29:50;;;;;;;26.27;20.50;;;18.00;99.90;;;;;;4842284;29;20049;-81
2023/05/22 06:32:16;;;;;;;25.25;19.50;;;18.10;99.90;;;;;;4845148;29;20042;-81
2023/05/22 06:38:23;;;;;;;27.90;18.83;;;18.20;99.90;;;;;;4843722;29;20052;-81
2023/05/22 06:40:48;;;;;;;27.33;20.08;;;19.00;99.90;;;;;;4842028;29;20050;-82
2023/05/22 06:43:14;;;;;;;24.85;19.85;;;19.40;99.90;;;;;;4841680;29;20054;-81
2023/05/22 06:45:48;;;;;;;25.48;19.38;;;19.10;99.90;;;;;;4858189;29;20046;-81
2023/05/22 06:50:42;;;;;;;25.67;19.85;;;18.50;99.90;;;;;;4842478;29;20050;-81
2023/05/22 06:53:07;;;;;;;26.73;18.77;;;18.60;99.90;;;;;;4843136;29;20050;-81
2023/05/22 06:55:33;;;;;;;23.75;19.27;;;18.70;99.90;;;;;;4842334;29;20046;-82
2023/05/22 06:57:59;;;;;;;24.77;19.17;;;18.70;99.90;;;;;;4843374;29;20057;-81
2023/05/22 07:00:24;;;;;;;25.17;19.70;;;18.90;99.90;;;;;;4841890;29;20049;-83
2023/05/22 07:02:50;;;;;;;25.75;18.50;;;18.90;99.90;;;;;;4840801;29;20042;-82
2023/05/22 07:05:16;;;;;;;23.90;18.08;;;18.90;99.90;;;;;;4841512;29;20054;-82
2023/05/22 07:07:42;;;;;;;23.90;18.60;;;18.90;99.90;;;;;;4842644;29;20042;-85
2023/05/22 07:10:08;;;;;;;24.17;18.65;;;18.90;99.90;;;;;;4841259;29;20045;-85
2023/05/22 07:12:46;;;;;;;24.20;17.80;;;19.00;99.90;;;;;;4842863;29;20050;-83
2023/05/22 07:15:14;;;;;;;25.33;18.65;;;19.10;99.90;;;;;;4841535;29;20045;-83
2023/05/22 07:17:42;;;;;;;23.92;18.92;;;19.00;99.90;;;;;;4841584;29;20081;-83
2023/05/22 07:20:17;;;;;;;22.67;17.80;;;19.20;99.90;;;;;;4841406;29;20048;-83
2023/05/22 07:22:42;;;;;;;22.80;18.85;;;19.30;99.90;;;;;;4841776;29;20042;-83
2023/05/22 07:25:08;;;;;;;22.98;18.55;;;19.40;99.90;;;;;;4840893;29;20053;-81
2023/05/22 07:27:34;;;;;;;22.88;18.35;;;19.50;99.90;;;;;;4841512;29;20046;-81
2023/05/22 07:29:59;;;;;;;20.98;17.00;;;19.50;99.90;;;;;;4841946;29;20050;-82
2023/05/22 07:32:25;;;;;;;24.33;18.23;;;19.50;99.90;;;;;;4842000;29;20045;-81
2023/05/22 07:34:51;;;;;;;23.20;18.05;;;19.50;99.90;;;;;;4842802;29;20096;-82
2023/05/22 07:37:17;;;;;;;23.15;18.13;;;20.30;99.90;;;;;;4841450;29;20057;-82
2023/05/22 07:39:45;;;;;;;23.92;18.52;;;19.70;99.90;;;;;;4838700;29;20438;-82
2023/05/22 07:42:13;;;;;;;23.88;18.85;;;19.60;99.90;;;;;;4840704;29;20050;-81
2023/05/22 07:44:39;;;;;;;24.40;18.60;;;19.80;99.90;;;;;;4840139;29;20062;-81
2023/05/22 07:47:05;;;;;;;23.23;18.13;;;19.70;99.90;;;;;;4841171;29;20050;-82
2023/05/22 07:49:31;;;;;;;24.42;18.33;;;19.80;99.90;;;;;;4840600;29;20418;-81
2023/05/22 07:51:56;;;;;;;23.15;18.25;;;20.00;99.90;;;;;;4840601;29;20114;-81
2023/05/22 07:54:22;;;;;;;24.17;17.77;;;20.10;99.90;;;;;;4852988;29;20552;-82
2023/05/22 07:56:48;;;;;;;23.17;17.98;;;20.50;99.90;;;;;;4840556;29;20068;-81
2023/05/22 07:59:32;;;;;;;22.42;18.40;;;20.40;99.90;;;;;;4839857;29;20057;-81
2023/05/22 08:01:57;;;;;;;24.20;17.70;;;20.50;99.90;;;;;;4839889;29;20091;-81
2023/05/22 08:04:28;;;;;;;21.95;16.80;;;20.60;99.90;;;;;;4837633;29;20169;-82
2023/05/22 08:06:58;;;;;;;22.77;17.55;;;21.30;99.90;;;;;;4834079;29;20038;-82
2023/05/22 08:09:39;;;;;;;23.45;17.33;;;20.80;99.90;;;;;;4830283;29;20046;-82
2023/05/22 08:12:11;;;;;;;21.23;16.75;;;20.70;99.90;;;;;;4822832;29;20050;-81
2023/05/22 08:14:37;;;;;;;23.60;17.13;;;20.70;99.90;;;;;;4827446;29;20050;-82
2023/05/22 08:17:03;;;;;;;23.27;17.38;;;20.70;99.90;;;;;;4830405;29;20551;-81
2023/05/22 08:19:41;;;;;;;21.85;16.70;;;20.60;99.90;;;;;;4831517;29;20079;-81
2023/05/22 08:22:18;;;;;;;21.55;16.55;;;20.40;99.90;;;;;;4823231;29;20054;-81
2023/05/22 08:28:01;;;;;;;22.80;15.95;;;20.60;99.90;;;;;;4838695;29;20050;-81
2023/05/22 08:30:27;;;;;;;21.15;15.93;;;20.70;99.90;;;;;;4840530;29;20076;-81
2023/05/22 08:32:52;;;;;;;22.58;16.33;;;20.80;99.90;;;;;;4840504;29;20050;-81
2023/05/22 08:35:18;;;;;;;19.15;14.98;;;20.90;99.90;;;;;;4840988;29;20498;-81
2023/05/22 08:37:43;;;;;;;20.13;16.20;;;21.10;99.90;;;;;;4839935;29;20068;-81
2023/05/22 08:40:14;;;;;;;21.95;15.68;;;21.30;99.90;;;;;;4840325;29;20045;-81
2023/05/22 08:42:40;;;;;;;19.83;15.45;;;21.30;99.90;;;;;;4840081;29;20474;-81
2023/05/22 08:45:06;;;;;;;21.13;15.82;;;21.20;99.90;;;;;;4841367;29;20153;-80
2023/05/22 08:47:37;;;;;;;20.35;15.30;;;21.40;99.90;;;;;;4839538;29;20505;-81
2023/05/22 08:50:03;;;;;;;21.17;14.77;;;21.50;99.90;;;;;;4841047;29;20134;-81
2023/05/22 08:52:50;;;;;;;21.13;14.85;;;21.60;99.90;;;;;;4841417;29;20046;-81
2023/05/22 08:55:18;;;;;;;21.80;14.77;;;21.80;99.90;;;;;;4839893;29;20041;-80
2023/05/22 08:57:45;;;;;;;20.25;14.52;;;22.00;99.90;;;;;;4841314;29;20045;-81
2023/05/22 09:00:11;;;;;;;18.30;14.00;;;22.30;99.90;;;;;;4839219;29;20048;-80
2023/05/22 09:02:38;;;;;;;17.88;13.88;;;22.40;99.90;;;;;;4839046;29;20074;-81
2023/05/22 09:05:06;;;;;;;17.60;13.98;;;22.40;99.90;;;;;;4839885;29;20050;-81
2023/05/22 09:07:32;;;;;;;17.90;14.18;;;22.80;99.90;;;;;;4840239;29;20081;-81
2023/05/22 09:09:58;;;;;;;18.77;14.32;;;23.00;99.90;;;;;;4839805;29;20471;-82
2023/05/22 09:12:25;;;;;;;17.63;13.13;;;23.00;99.90;;;;;;4841791;29;20125;-82
2023/05/22 09:14:52;;;;;;;19.83;14.80;;;22.80;99.90;;;;;;4842563;29;20052;-81
2023/05/22 09:17:19;;;;;;;20.13;14.10;;;23.00;99.90;;;;;;4844696;29;20061;-82
2023/05/22 09:19:45;;;;;;;18.27;14.32;;;23.10;99.90;;;;;;4844828;29;20133;-81
2023/05/22 09:22:12;;;;;;;18.60;13.80;;;23.10;99.90;;;;;;4842661;29;20144;-81
2023/05/22 09:24:41;;;;;;;18.00;14.27;;;23.20;99.90;;;;;;4844606;29;20145;-81
2023/05/22 09:27:08;;;;;;;19.95;13.77;;;23.20;99.90;;;;;;4844554;29;20046;-82
2023/05/22 09:29:48;;;;;;;17.85;13.48;;;23.20;99.90;;;;;;4843560;29;20042;-83
2023/05/22 09:32:15;;;;;;;18.55;14.25;;;23.20;99.90;;;;;;4842790;29;20057;-83
2023/05/22 09:34:41;;;;;;;20.08;13.80;;;23.00;99.90;;;;;;4843756;29;20046;-83
2023/05/22 09:37:07;;;;;;;21.45;14.25;;;23.00;99.90;;;;;;4842568;29;20088;-84
2023/05/22 09:39:46;;;;;;;18.63;14.57;;;22.90;99.90;;;;;;4844558;29;20480;-83
2023/05/22 09:42:15;;;;;;;18.00;13.52;;;22.80;99.90;;;;;;4844731;29;20033;-82
2023/05/22 09:44:42;;;;;;;17.75;13.68;;;22.70;99.90;;;;;;4842520;29;20495;-82
2023/05/22 09:47:09;;;;;;;19.80;14.25;;;22.50;99.90;;;;;;4843386;29;20067;-82
2023/05/22 09:49:42;;;;;;;19.38;14.13;;;22.60;99.90;;;;;;4842649;29;20414;-84
2023/05/22 09:52:11;;;;;;;21.75;14.70;;;22.60;99.90;;;;;;4844444;29;20054;-81
2023/05/22 09:54:47;;;;;;;17.92;13.40;;;22.70;99.90;;;;;;4844440;29;20050;-82
2023/05/22 09:57:17;;;;;;;20.65;14.32;;;22.90;99.90;;;;;;4842440;29;20053;-82
2023/05/22 09:59:45;;;;;;;19.33;13.75;;;23.00;99.90;;;;;;4843340;29;20499;-81
2023/05/22 10:02:12;;;;;;;19.50;14.05;;;22.90;99.90;;;;;;4844101;29;20050;-81
2023/05/22 10:04:40;;;;;;;18.30;14.05;;;22.80;99.90;;;;;;4843678;29;20054;-82
2023/05/22 10:07:07;;;;;;;17.90;13.80;;;22.70;99.90;;;;;;4842992;29;20077;-82
2023/05/22 10:09:35;;;;;;;20.15;14.10;;;22.60;99.90;;;;;;4843524;29;20466;-81
2023/05/22 10:12:04;;;;;;;18.30;14.27;;;22.50;99.90;;;;;;4843553;29;20054;-83
2023/05/22 10:14:31;;;;;;;21.33;14.05;;;22.30;99.90;;;;;;4843296;29;20050;-82
2023/05/22 10:17:00;;;;;;;19.05;15.02;;;22.20;99.90;;;;;;4844075;29;20081;-82
2023/05/22 10:19:28;;;;;;;20.42;14.32;;;22.10;99.90;;;;;;4843127;29;20061;-82
2023/05/22 10:21:56;;;;;;;20.67;14.32;;;21.90;99.90;;;;;;4844199;29;20344;-83
2023/05/22 10:24:23;;;;;;;17.83;14.13;;;22.00;99.90;;;;;;4843269;29;20526;-82
2023/05/22 10:26:50;;;;;;;19.23;14.50;;;21.70;99.90;;;;;;4843283;29;20587;-82
2023/05/22 10:29:21;;;;;;;21.13;13.90;;;21.70;99.90;;;;;;4843881;29;20121;-83
2023/05/22 10:32:11;;;;;;;18.90;13.02;;;21.80;99.90;;;;;;4842128;29;20057;-82
2023/05/22 10:34:55;;;;;;;19.38;13.75;;;21.70;99.90;;;;;;4844034;29;20049;-82
2023/05/22 10:37:45;;;;;;;19.77;14.30;;;21.70;99.90;;;;;;4842439;29;20088;-81
2023/05/22 10:40:27;;;;;;;22.15;14.20;;;21.80;99.90;;;;;;4841646;29;20046;-82
2023/05/22 10:43:01;;;;;;;19.02;13.57;;;21.90;99.90;;;;;;4842842;29;20060;-82
2023/05/22 10:45:30;;;;;;;21.13;14.02;;;21.90;99.90;;;;;;4843386;29;20498;-81
2023/05/22 10:48:10;;;;;;;19.83;14.32;;;21.90;99.90;;;;;;4842040;29;20440;-81
2023/05/22 10:50:37;;;;;;;19.95;15.02;;;21.90;99.90;;;;;;4843611;29;20430;-82
2023/05/22 10:53:26;;;;;;;19.88;15.35;;;21.90;99.90;;;;;;4843070;29;20047;-81
2023/05/22 10:55:57;;;;;;;20.70;14.35;;;21.80;99.90;;;;;;4842261;29;20098;-82
2023/05/22 10:58:30;;;;;;;21.40;15.05;;;22.10;99.90;;;;;;4843400;29;20116;-82
2023/05/22 11:01:19;;;;;;;21.98;14.73;;;22.50;99.90;;;;;;4842928;29;20069;-83
2023/05/22 11:04:23;;;;;;;20.10;14.77;;;23.30;99.90;;;;;;4843640;29;20057;-80
2023/05/22 11:07:07;;;;;;;22.08;14.57;;;23.70;99.90;;;;;;4848687;29;20045;-80
2023/05/22 11:09:48;;;;;;;21.92;15.23;;;24.00;99.90;;;;;;4841871;29;20525;-81
2023/05/22 11:12:27;;;;;;;21.98;15.13;;;24.00;99.90;;;;;;4841798;29;20058;-81
2023/05/22 11:14:57;;;;;;;22.23;15.07;;;24.10;99.90;;;;;;4842076;29;20056;-80
2023/05/22 11:17:39;;;;;;;22.27;14.43;;;24.40;99.90;;;;;;4841622;29;20042;-80
2023/05/22 11:20:21;;;;;;;19.92;15.05;;;24.60;99.90;;;;;;4843257;29;20057;-80
2023/05/22 11:22:57;;;;;;;20.98;15.60;;;24.60;99.90;;;;;;4842514;29;20094;-81
2023/05/22 11:25:24;;;;;;;19.75;14.32;;;24.50;99.90;;;;;;4841252;29;20049;-81
2023/05/22 11:27:49;;;;;;;18.65;14.40;;;24.40;99.90;;;;;;4842496;29;20121;-81
2023/05/22 11:30:16;;;;;;;20.45;15.45;;;24.50;99.90;;;;;;4841690;29;20120;-80
2023/05/22 11:32:44;;;;;;;20.15;15.35;;;24.90;99.90;;;;;;4841386;29;20129;-81
2023/05/22 11:35:28;;;;;;;21.95;14.90;;;25.20;99.90;;;;;;4840937;29;20487;-81
2023/05/22 11:37:55;;;;;;;21.85;15.63;;;25.50;99.90;;;;;;4840026;29;20045;-81
2023/05/22 11:40:25;;;;;;;21.55;14.82;;;25.70;99.90;;;;;;4842551;29;20084;-82
2023/05/22 11:42:55;;;;;;;21.00;16.08;;;25.80;99.90;;;;;;4841127;29;20042;-82
2023/05/22 11:45:21;;;;;;;22.00;16.05;;;25.80;99.90;;;;;;4842726;29;20120;-82
2023/05/22 11:47:47;;;;;;;18.95;14.43;;;25.90;99.90;;;;;;4842889;29;20499;-82
2023/05/22 11:50:13;;;;;;;20.85;15.52;;;26.00;99.90;;;;;;4840893;29;20054;-82
2023/05/22 11:52:42;;;;;;;19.33;14.77;;;26.20;99.90;;;;;;4842086;29;20061;-81
2023/05/22 11:55:09;;;;;;;18.83;14.43;;;26.40;99.90;;;;;;4841719;29;20430;-80
2023/05/22 11:57:35;;;;;;;21.23;14.75;;;26.60;99.90;;;;;;4840136;29;20046;-82
2023/05/22 12:00:05;;;;;;;20.48;14.57;;;26.70;99.90;;;;;;4841997;29;20407;-80
2023/05/22 12:02:31;;;;;;;20.75;14.57;;;26.90;99.90;;;;;;4842092;29;20046;-80
2023/05/22 12:04:57;;;;;;;20.40;14.82;;;27.10;99.90;;;;;;4837367;29;20505;-80
2023/05/22 12:07:25;;;;;;;20.02;14.48;;;27.30;99.90;;;;;;4840905;29;20125;-80
2023/05/22 12:09:51;;;;;;;19.90;15.27;;;27.20;99.90;;;;;;4842147;29;20049;-81
2023/05/22 12:12:17;;;;;;;17.55;13.68;;;27.10;99.90;;;;;;4840296;29;20053;-81
2023/05/22 12:14:44;;;;;;;19.92;14.52;;;27.20;99.90;;;;;;4841120;29;20106;-80
2023/05/22 12:17:13;;;;;;;19.25;15.35;;;27.50;99.90;;;;;;4841796;29;20068;-80
2023/05/22 12:19:40;;;;;;;20.15;15.32;;;27.60;99.90;;;;;;4842453;29;20050;-80
2023/05/22 12:22:05;;;;;;;20.13;16.52;;;27.60;99.90;;;;;;4842323;29;20049;-81
2023/05/22 12:24:41;;;;;;;19.75;14.70;;;27.60;99.90;;;;;;4841363;29;20110;-81
2023/05/22 12:27:09;;;;;;;18.48;14.95;;;27.80;99.90;;;;;;4840941;29;20110;-81
2023/05/22 12:29:35;;;;;;;18.40;14.05;;;27.80;99.90;;;;;;4841108;29;20043;-80
2023/05/22 12:32:02;;;;;;;18.52;14.75;;;28.00;99.90;;;;;;4841240;29;20056;-80
2023/05/22 12:34:40;;;;;;;19.42;15.40;;;28.00;99.90;;;;;;4842023;29;20049;-80
2023/05/22 12:37:24;;;;;;;19.58;13.85;;;28.10;99.90;;;;;;4840603;29;20050;-81
2023/05/22 12:39:57;;;;;;;18.58;13.77;;;28.00;99.90;;;;;;4841306;29;20133;-81
2023/05/22 12:42:24;;;;;;;17.27;13.13;;;28.20;99.90;;;;;;4840697;29;20466;-80
2023/05/22 12:44:55;;;;;;;17.88;13.98;;;28.30;99.90;;;;;;4840705;29;20050;-81
2023/05/22 12:47:22;;;;;;;18.17;13.82;;;28.40;99.90;;;;;;4843562;29;20042;-81
2023/05/22 12:49:47;;;;;;;25.10;12.68;;;28.40;99.90;;;;;;4845690;29;20077;-81
2023/05/22 12:52:13;;;;;;;16.70;11.75;;;28.50;99.90;;;;;;4845772;29;20050;-81
2023/05/22 12:54:39;;;;;;;15.95;11.30;;;28.40;99.90;;;;;;4843639;29;20066;-81
2023/05/22 12:57:05;;;;;;;17.48;11.75;;;28.60;99.90;;;;;;4845998;29;20102;-81
2023/05/22 12:59:32;;;;;;;18.58;12.23;;;28.60;99.90;;;;;;4843479;29;20038;-81